createdAt,value
2018-12-08T05:00:58.691Z,3.20
2018-12-08T05:01:58.568Z,4.40
2018-12-08T05:03:51.228Z,4.20
2018-12-08T05:04:51.115Z,4.20
2018-12-08T05:06:43.793Z,4.00
2018-12-08T05:07:43.660Z,4.80
2018-12-08T05:09:36.329Z,4.10
2018-12-08T05:10:36.214Z,4.50
2018-12-08T05:12:28.891Z,4.00
2018-12-08T05:13:28.762Z,4.40
2018-12-08T05:15:21.422Z,4.10
2018-12-08T05:16:21.309Z,3.80
2018-12-08T05:18:13.989Z,3.60
2018-12-08T05:19:13.862Z,4.20
2018-12-08T05:21:06.534Z,4.60
2018-12-08T05:22:06.412Z,4.40
2018-12-08T05:23:59.071Z,4.00
2018-12-08T05:24:58.957Z,4.80
2018-12-08T05:26:51.632Z,3.90
2018-12-08T05:27:51.506Z,3.90
2018-12-08T05:29:44.165Z,4.30
2018-12-08T05:30:44.054Z,4.20
2018-12-08T05:32:36.731Z,4.10
2018-12-08T05:33:36.604Z,4.20
2018-12-08T05:35:29.260Z,4.40
2018-12-08T05:36:29.154Z,4.10
2018-12-08T05:38:21.833Z,4.30
2018-12-08T05:39:21.700Z,4.40
2018-12-08T05:41:14.381Z,4.50
2018-12-08T05:42:14.249Z,4.30
2018-12-08T05:44:06.915Z,4.60
2018-12-08T05:45:06.803Z,4.10
2018-12-08T05:46:59.479Z,3.60
2018-12-08T05:47:59.356Z,4.20
2018-12-08T05:49:52.015Z,4.10
2018-12-08T05:50:51.902Z,4.20
2018-12-08T05:52:44.580Z,4.30
2018-12-08T05:53:44.445Z,4.60
2018-12-08T05:55:37.108Z,4.10
2018-12-08T05:56:37.001Z,4.50
2018-12-08T05:58:29.681Z,4.10
2018-12-08T05:59:29.549Z,4.50
2018-12-08T06:01:22.210Z,4.00
2018-12-08T06:02:22.100Z,4.60
2018-12-08T06:04:14.777Z,4.30
2018-12-08T06:05:14.645Z,4.30
2018-12-08T06:07:07.301Z,3.80
2018-12-08T06:08:07.199Z,4.20
2018-12-08T06:09:59.873Z,4.50
2018-12-08T06:10:59.739Z,4.00
2018-12-08T06:12:52.416Z,4.60
2018-12-08T06:13:52.295Z,4.70
2018-12-08T06:15:44.949Z,4.10
2018-12-08T06:16:44.835Z,4.40
2018-12-08T06:18:37.513Z,4.40
2018-12-08T06:19:37.386Z,4.70
2018-12-08T06:21:30.044Z,4.50
2018-12-08T06:22:29.932Z,4.00
2018-12-08T06:24:22.608Z,5.00
2018-12-08T06:25:22.484Z,4.50
2018-12-08T06:27:15.143Z,4.60
2018-12-08T06:28:15.032Z,4.10
2018-12-08T06:30:07.708Z,4.60
2018-12-08T06:31:07.577Z,4.10
2018-12-08T06:33:00.243Z,4.30
2018-12-08T06:34:00.123Z,4.00
2018-12-08T06:35:52.804Z,4.30
2018-12-08T06:36:52.672Z,4.50
2018-12-08T06:38:45.333Z,4.50
2018-12-08T06:39:45.221Z,5.00
2018-12-08T06:41:37.897Z,4.80
2018-12-08T06:42:37.775Z,4.40
2018-12-08T06:44:30.447Z,4.20
2018-12-08T06:45:30.317Z,4.70
2018-12-08T06:47:22.980Z,4.60
2018-12-08T06:48:22.863Z,3.80
2018-12-08T06:50:15.539Z,4.10
2018-12-08T06:51:15.411Z,4.10
2018-12-08T06:53:08.070Z,4.60
2018-12-08T06:54:07.973Z,4.50
2018-12-08T06:56:00.646Z,4.50
2018-12-08T06:57:00.509Z,4.50
2018-12-08T06:58:53.173Z,4.70
2018-12-08T06:59:53.065Z,4.20
2018-12-08T07:01:45.736Z,4.70
2018-12-08T07:02:45.612Z,4.40
2018-12-08T07:04:38.269Z,4.30
2018-12-08T07:05:38.161Z,4.00
2018-12-08T07:07:30.841Z,4.10
2018-12-08T07:08:30.713Z,4.20
2018-12-08T07:10:23.371Z,4.20
2018-12-08T07:11:23.261Z,4.30
2018-12-08T07:13:15.939Z,4.20
2018-12-08T07:14:15.809Z,4.10
2018-12-08T07:16:08.467Z,4.40
2018-12-08T07:17:08.364Z,4.50
2018-12-08T07:19:01.041Z,4.70
2018-12-08T07:20:00.909Z,4.20
2018-12-08T07:21:53.569Z,4.10
2018-12-08T07:22:53.461Z,4.20
2018-12-08T07:24:46.134Z,4.60
2018-12-08T07:25:46.007Z,4.40
2018-12-08T07:27:38.688Z,4.20
2018-12-08T07:28:38.559Z,4.70
2018-12-08T07:30:31.219Z,4.70
2018-12-08T07:31:31.111Z,4.20
2018-12-08T07:33:23.789Z,4.20
2018-12-08T07:34:24.678Z,4.60
2018-12-08T07:36:16.315Z,4.50
2018-12-08T07:37:16.201Z,4.40
2018-12-08T07:39:08.884Z,4.40
2018-12-08T07:40:08.758Z,4.50
2018-12-08T07:42:01.410Z,4.40
2018-12-08T07:43:01.299Z,4.40
2018-12-08T07:44:53.975Z,4.10
2018-12-08T07:45:53.849Z,4.20
2018-12-08T07:47:46.528Z,4.10
2018-12-08T07:48:46.394Z,4.50
2018-12-08T07:50:39.064Z,4.20
2018-12-08T07:51:38.973Z,4.10
2018-12-08T07:53:31.684Z,4.30
2018-12-08T07:54:31.558Z,4.10
2018-12-08T07:56:24.222Z,4.10
2018-12-08T07:57:24.107Z,4.10
2018-12-08T07:59:16.784Z,4.00
2018-12-08T08:00:16.666Z,4.10
2018-12-08T08:02:09.321Z,3.50
2018-12-08T08:03:09.205Z,3.80
2018-12-08T08:05:01.883Z,3.60
2018-12-08T08:06:01.767Z,3.60
2018-12-08T08:07:54.434Z,3.60
2018-12-08T08:08:54.312Z,3.80
2018-12-08T08:10:46.966Z,3.80
2018-12-08T08:11:46.856Z,3.20
2018-12-08T08:13:39.533Z,3.60
2018-12-08T08:14:39.402Z,3.20
2018-12-08T08:16:32.066Z,3.60
2018-12-08T08:17:31.950Z,3.30
2018-12-08T08:19:24.626Z,3.10
2018-12-08T08:20:24.500Z,2.90
2018-12-08T08:22:17.163Z,3.10
2018-12-08T08:23:17.048Z,3.20
2018-12-08T08:25:09.732Z,3.20
2018-12-08T08:26:09.598Z,3.50
2018-12-08T08:28:02.277Z,3.30
2018-12-08T08:29:02.166Z,3.00
2018-12-08T08:30:54.832Z,3.30
2018-12-08T08:31:54.704Z,3.40
2018-12-08T08:33:47.385Z,3.50
2018-12-08T08:34:47.250Z,3.10
2018-12-08T08:36:39.917Z,3.30
2018-12-08T08:37:39.805Z,3.30
2018-12-08T08:39:32.486Z,3.50
2018-12-08T08:40:32.356Z,3.30
2018-12-08T08:42:25.021Z,3.60
2018-12-08T08:43:24.902Z,3.30
2018-12-08T08:45:17.582Z,3.60
2018-12-08T08:46:17.457Z,4.10
2018-12-08T08:48:10.399Z,3.70
2018-12-08T08:49:10.008Z,4.00
2018-12-08T08:51:02.701Z,3.50
2018-12-08T08:52:02.573Z,3.80
2018-12-08T08:53:55.261Z,3.90
2018-12-08T08:54:55.167Z,4.00
2018-12-08T08:56:47.785Z,4.00
2018-12-08T08:57:47.676Z,3.70
2018-12-08T08:59:40.351Z,3.60
2018-12-08T09:00:40.223Z,3.90
2018-12-08T09:02:32.887Z,4.30
2018-12-08T09:03:32.818Z,3.80
2018-12-08T09:05:25.450Z,4.00
2018-12-08T09:06:25.320Z,3.60
2018-12-08T09:08:17.984Z,4.00
2018-12-08T09:09:17.871Z,4.10
2018-12-08T09:11:10.548Z,4.30
2018-12-08T09:12:10.420Z,4.00
2018-12-08T09:14:03.080Z,4.20
2018-12-08T09:15:02.973Z,3.80
2018-12-08T09:16:55.650Z,4.20
2018-12-08T09:17:55.519Z,4.40
2018-12-08T09:19:48.236Z,4.80
2018-12-08T09:20:48.117Z,3.70
2018-12-08T09:22:40.797Z,3.90
2018-12-08T09:23:40.696Z,3.80
2018-12-08T09:25:33.971Z,4.10
2018-12-08T09:26:33.210Z,4.40
2018-12-08T09:28:25.875Z,4.10
2018-12-08T09:29:25.762Z,4.20
2018-12-08T09:31:18.437Z,4.10
2018-12-08T09:32:18.305Z,4.40
2018-12-08T09:34:10.971Z,4.10
2018-12-08T09:35:10.858Z,4.40
2018-12-08T09:37:03.532Z,4.50
2018-12-08T09:38:03.405Z,4.30
2018-12-08T09:39:57.139Z,3.90
2018-12-08T09:40:55.952Z,4.50
2018-12-08T09:42:48.617Z,3.80
2018-12-08T09:43:48.502Z,4.50
2018-12-08T09:45:42.001Z,4.70
2018-12-08T09:46:41.056Z,3.70
2018-12-08T09:48:33.724Z,4.40
2018-12-08T09:49:33.610Z,4.30
2018-12-08T09:51:26.288Z,4.50
2018-12-08T09:52:26.160Z,4.60
2018-12-08T09:54:18.821Z,4.20
2018-12-08T09:55:18.715Z,5.00
2018-12-08T09:57:11.398Z,4.50
2018-12-08T09:58:11.264Z,4.10
2018-12-08T10:00:03.947Z,4.10
2018-12-08T10:01:03.826Z,3.90
2018-12-08T10:02:56.483Z,4.20
2018-12-08T10:03:56.371Z,3.80
2018-12-08T10:05:49.064Z,3.60
2018-12-08T10:06:48.929Z,3.30
2018-12-08T10:08:41.590Z,3.80
2018-12-08T10:09:41.484Z,4.00
2018-12-08T10:11:34.165Z,3.90
2018-12-08T10:12:34.040Z,3.80
2018-12-08T10:14:26.696Z,3.70
2018-12-08T10:15:26.586Z,3.90
2018-12-08T10:17:19.255Z,3.80
2018-12-08T10:18:19.128Z,4.10
2018-12-08T10:20:11.819Z,4.20
2018-12-08T10:21:11.685Z,3.70
2018-12-08T10:23:04.346Z,4.00
2018-12-08T10:24:04.234Z,4.00
2018-12-08T10:25:56.910Z,4.10
2018-12-08T10:26:56.778Z,4.20
2018-12-08T10:28:49.458Z,3.80
2018-12-08T10:29:49.356Z,4.10
2018-12-08T10:31:42.006Z,4.40
2018-12-08T10:32:41.885Z,3.80
2018-12-08T10:34:34.552Z,4.20
2018-12-08T10:35:34.440Z,4.50
2018-12-08T10:37:27.116Z,4.30
2018-12-08T10:38:26.982Z,4.10
2018-12-08T10:40:19.654Z,4.50
2018-12-08T10:41:19.539Z,3.80
2018-12-08T10:43:12.219Z,4.40
2018-12-08T10:44:12.091Z,4.30
2018-12-08T10:46:04.767Z,4.70
2018-12-08T10:47:04.645Z,4.10
2018-12-08T10:48:57.313Z,4.60
2018-12-08T10:49:57.241Z,5.00
2018-12-08T10:51:49.881Z,5.00
2018-12-08T10:52:49.754Z,5.00
2018-12-08T10:54:42.415Z,4.80
2018-12-08T10:55:42.301Z,4.90
2018-12-08T10:57:34.984Z,5.10
2018-12-08T10:58:34.849Z,4.70
2018-12-08T11:00:27.513Z,5.10
2018-12-08T11:01:27.395Z,5.00
2018-12-08T11:03:20.075Z,4.80
2018-12-08T11:04:19.960Z,4.80
2018-12-08T11:06:12.625Z,5.40
2018-12-08T11:07:12.494Z,5.10
2018-12-08T11:09:05.154Z,5.00
2018-12-08T11:10:05.047Z,4.90
2018-12-08T11:11:57.722Z,4.60
2018-12-08T11:12:57.597Z,4.90
2018-12-08T11:14:50.257Z,4.70
2018-12-08T11:15:50.150Z,5.10
2018-12-08T11:17:42.826Z,4.20
2018-12-08T11:18:42.695Z,4.80
2018-12-08T11:20:35.364Z,5.00
2018-12-08T11:21:35.257Z,4.90
2018-12-08T11:23:27.934Z,4.60
2018-12-08T11:24:27.801Z,3.80
2018-12-08T11:26:20.493Z,4.90
2018-12-08T11:27:20.367Z,5.10
2018-12-08T11:29:13.028Z,4.80
2018-12-08T11:30:13.018Z,4.40
2018-12-08T11:32:05.593Z,4.40
2018-12-08T11:33:05.463Z,4.50
2018-12-08T11:34:58.133Z,4.40
2018-12-08T11:35:58.017Z,4.30
2018-12-08T11:37:50.696Z,4.30
2018-12-08T11:38:50.573Z,3.80
2018-12-08T11:40:43.243Z,4.10
2018-12-08T11:41:43.127Z,4.70
2018-12-08T11:43:35.812Z,4.00
2018-12-08T11:44:35.681Z,4.30
2018-12-08T11:46:28.365Z,4.10
2018-12-08T11:47:28.237Z,3.40
2018-12-08T11:49:20.902Z,3.70
2018-12-08T11:50:20.794Z,4.50
2018-12-08T11:52:13.474Z,4.10
2018-12-08T11:53:13.344Z,4.40
2018-12-08T11:55:06.007Z,3.80
2018-12-08T11:56:05.902Z,4.30
2018-12-08T11:57:58.586Z,4.30
2018-12-08T11:58:58.459Z,4.10
2018-12-08T12:00:51.126Z,4.10
2018-12-08T12:01:51.018Z,4.20
2018-12-08T12:03:43.694Z,3.60
2018-12-08T12:04:43.567Z,3.50
2018-12-08T12:06:36.233Z,4.10
2018-12-08T12:07:36.119Z,4.00
2018-12-08T12:09:28.812Z,3.90
2018-12-08T12:10:28.679Z,3.50
2018-12-08T12:12:21.356Z,3.70
2018-12-08T12:13:21.235Z,3.50
2018-12-08T12:15:13.898Z,3.30
2018-12-08T12:16:13.790Z,3.90
2018-12-08T12:18:06.469Z,3.70
2018-12-08T12:19:06.346Z,3.60
2018-12-08T12:20:59.013Z,2.50
2018-12-08T12:21:58.902Z,3.60
2018-12-08T12:23:51.582Z,4.00
2018-12-08T12:24:51.466Z,3.70
2018-12-08T12:26:44.122Z,3.40
2018-12-08T12:27:44.012Z,3.80
2018-12-08T12:29:36.690Z,3.40
2018-12-08T12:30:36.570Z,4.00
2018-12-08T12:32:29.251Z,4.10
2018-12-08T12:33:29.127Z,3.80
2018-12-08T12:35:21.791Z,4.50
2018-12-08T12:36:21.681Z,4.00
2018-12-08T12:38:14.357Z,4.10
2018-12-08T12:39:14.235Z,4.10
2018-12-08T12:41:06.896Z,4.00
2018-12-08T12:42:06.785Z,4.10
2018-12-08T12:43:59.466Z,4.40
2018-12-08T12:44:59.336Z,4.00
2018-12-08T12:46:51.998Z,3.70
2018-12-08T12:47:51.892Z,4.20
2018-12-08T12:49:44.572Z,4.90
2018-12-08T12:50:44.439Z,4.20
2018-12-08T12:52:37.126Z,4.20
2018-12-08T12:53:36.997Z,4.00
2018-12-08T12:55:29.661Z,4.20
2018-12-08T12:56:29.544Z,4.50
2018-12-08T12:58:22.256Z,4.00
2018-12-08T12:59:22.186Z,3.60
2018-12-08T13:01:14.883Z,4.30
2018-12-08T13:02:14.783Z,4.00
2018-12-08T13:04:07.717Z,3.90
2018-12-08T13:05:07.430Z,4.00
2018-12-08T13:07:00.109Z,3.70
2018-12-08T13:08:00.001Z,3.80
2018-12-08T13:09:52.704Z,3.70
2018-12-08T13:10:52.581Z,4.20
2018-12-08T13:12:45.241Z,4.00
2018-12-08T13:13:45.126Z,3.90
2018-12-08T13:15:37.814Z,3.90
2018-12-08T13:16:37.686Z,3.20
2018-12-08T13:18:30.361Z,4.10
2018-12-08T13:19:30.269Z,3.70
2018-12-08T13:21:22.934Z,3.60
2018-12-08T13:22:22.805Z,3.70
2018-12-08T13:24:15.483Z,3.70
2018-12-08T13:25:15.362Z,3.60
2018-12-08T13:27:08.020Z,3.40
2018-12-08T13:28:07.907Z,4.10
2018-12-08T13:30:00.589Z,3.90
2018-12-08T13:31:00.585Z,3.40
2018-12-08T13:32:53.195Z,4.10
2018-12-08T13:33:53.033Z,3.80
2018-12-08T13:35:45.873Z,4.60
2018-12-08T13:36:45.638Z,4.10
2018-12-08T13:38:38.253Z,4.30
2018-12-08T13:39:38.145Z,4.30
2018-12-08T13:41:30.830Z,3.90
2018-12-08T13:42:30.695Z,4.00
2018-12-08T13:44:23.383Z,3.80
2018-12-08T13:45:23.247Z,3.90
2018-12-08T13:47:15.910Z,4.30
2018-12-08T13:48:15.802Z,4.70
2018-12-08T13:50:08.479Z,4.70
2018-12-08T13:51:08.353Z,4.40
2018-12-08T13:53:01.027Z,3.60
2018-12-08T13:54:00.909Z,4.30
2018-12-08T13:55:53.593Z,4.30
2018-12-08T13:56:53.469Z,4.40
2018-12-08T13:58:46.142Z,4.20
2018-12-08T13:59:46.035Z,4.20
2018-12-08T14:01:38.719Z,4.30
2018-12-08T14:02:38.583Z,4.70
2018-12-08T14:04:31.247Z,4.50
2018-12-08T14:05:31.137Z,4.60
2018-12-08T14:07:23.820Z,4.90
2018-12-08T14:08:23.691Z,4.00
2018-12-08T14:10:16.521Z,4.10
2018-12-08T14:11:16.395Z,9.40
2018-12-08T14:13:09.059Z,4.20
2018-12-08T14:14:08.951Z,4.50
2018-12-08T14:16:01.630Z,4.50
2018-12-08T14:17:01.501Z,4.30
2018-12-08T14:18:54.179Z,4.70
2018-12-08T14:19:54.071Z,3.90
2018-12-08T14:21:46.766Z,4.30
2018-12-08T14:22:46.639Z,4.10
2018-12-08T14:24:39.305Z,4.50
2018-12-08T14:25:39.190Z,4.70
2018-12-08T14:27:31.869Z,4.00
2018-12-08T14:28:31.749Z,4.10
2018-12-08T14:30:24.420Z,4.20
2018-12-08T14:31:24.299Z,4.40
2018-12-08T14:33:16.978Z,4.60
2018-12-08T14:34:16.850Z,4.50
2018-12-08T14:36:09.524Z,4.70
2018-12-08T14:37:09.396Z,4.20
2018-12-08T14:39:02.063Z,4.10
2018-12-08T14:40:01.954Z,4.40
2018-12-08T14:41:54.630Z,4.10
2018-12-08T14:42:54.504Z,4.00
2018-12-08T14:44:47.167Z,3.90
2018-12-08T14:45:47.053Z,4.00
2018-12-08T14:47:39.732Z,4.40
2018-12-08T14:48:39.601Z,3.70
2018-12-08T14:50:32.263Z,3.50
2018-12-08T14:51:32.153Z,3.70
2018-12-08T14:53:24.827Z,3.80
2018-12-08T14:54:24.706Z,4.10
2018-12-08T14:56:17.383Z,3.90
2018-12-08T14:57:17.251Z,3.60
2018-12-08T14:59:09.921Z,3.40
2018-12-08T15:00:09.804Z,3.80
2018-12-08T15:02:02.489Z,3.80
2018-12-08T15:03:02.357Z,3.70
2018-12-08T15:04:55.022Z,3.90
2018-12-08T15:05:54.911Z,3.30
2018-12-08T15:07:47.590Z,4.20
2018-12-08T15:08:47.464Z,4.30
2018-12-08T15:10:40.136Z,3.60
2018-12-08T15:11:40.019Z,4.00
2018-12-08T15:13:32.701Z,3.90
2018-12-08T15:14:32.581Z,4.10
2018-12-08T15:16:25.234Z,3.80
2018-12-08T15:17:25.128Z,3.20
2018-12-08T15:19:17.808Z,4.00
2018-12-08T15:20:17.677Z,3.40
2018-12-08T15:22:10.356Z,5.70
2018-12-08T15:23:10.228Z,13.50
2018-12-08T15:25:02.885Z,4.10
2018-12-08T15:26:02.780Z,3.40
2018-12-08T15:27:55.456Z,3.20
2018-12-08T15:28:55.330Z,3.70
2018-12-08T15:30:47.992Z,4.20
2018-12-08T15:31:47.882Z,3.80
2018-12-08T15:33:40.561Z,3.40
2018-12-08T15:34:40.437Z,3.90
2018-12-08T15:36:33.097Z,4.00
2018-12-08T15:37:32.991Z,3.70
2018-12-08T15:39:25.738Z,4.00
2018-12-08T15:40:25.545Z,3.90
2018-12-08T15:42:18.241Z,3.90
2018-12-08T15:43:18.100Z,3.40
2018-12-08T15:45:10.776Z,4.10
2018-12-08T15:46:10.664Z,3.70
2018-12-08T15:48:03.343Z,3.20
2018-12-08T15:49:03.220Z,3.40
2018-12-08T15:50:55.884Z,3.50
2018-12-08T15:51:55.770Z,3.40
2018-12-08T15:53:48.453Z,3.80
2018-12-08T15:54:48.323Z,3.70
2018-12-08T15:56:41.000Z,3.70
2018-12-08T15:57:40.876Z,3.20
2018-12-08T15:59:33.556Z,3.90
2018-12-08T16:00:33.446Z,3.30
2018-12-08T16:02:26.095Z,3.70
2018-12-08T16:03:25.980Z,3.80
2018-12-08T16:05:18.754Z,4.00
2018-12-08T16:06:18.630Z,3.30
2018-12-08T16:08:11.817Z,3.40
2018-12-08T16:09:11.681Z,4.10
2018-12-08T16:11:04.348Z,4.50
2018-12-08T16:12:04.232Z,3.60
2018-12-08T16:13:56.915Z,3.60
2018-12-08T16:14:56.785Z,3.60
2018-12-08T16:16:49.452Z,4.10
2018-12-08T16:17:49.343Z,3.50
2018-12-08T16:19:42.036Z,4.00
2018-12-08T16:20:41.898Z,3.80
2018-12-08T16:22:34.571Z,4.00
2018-12-08T16:23:34.461Z,3.90
2018-12-08T16:25:27.136Z,3.80
2018-12-08T16:26:27.233Z,4.30
2018-12-08T16:28:19.705Z,3.50
2018-12-08T16:29:19.566Z,3.30
2018-12-08T16:31:12.235Z,3.80
2018-12-08T16:32:12.124Z,4.10
2018-12-08T16:34:04.798Z,4.20
2018-12-08T16:35:04.667Z,4.30
2018-12-08T16:36:57.342Z,4.30
2018-12-08T16:37:57.452Z,3.80
2018-12-08T16:39:49.912Z,3.70
2018-12-08T16:40:49.785Z,3.80
2018-12-08T16:42:42.454Z,4.30
2018-12-08T16:43:42.340Z,4.00
2018-12-08T16:45:35.020Z,4.10
2018-12-08T16:46:34.888Z,4.20
2018-12-08T16:48:27.585Z,4.90
2018-12-08T16:49:27.447Z,3.90
2018-12-08T16:51:20.114Z,4.00
2018-12-08T16:52:19.995Z,3.80
2018-12-08T16:54:12.677Z,3.90
2018-12-08T16:55:12.553Z,3.40
2018-12-08T16:57:06.298Z,4.00
2018-12-08T16:58:06.100Z,3.90
2018-12-08T16:59:58.782Z,4.00
2018-12-08T17:00:58.650Z,3.70
2018-12-08T17:02:51.317Z,4.60
2018-12-08T17:03:51.210Z,4.60
2018-12-08T17:05:43.892Z,4.20
2018-12-08T17:06:43.756Z,5.20
2018-12-08T17:08:36.437Z,4.40
2018-12-08T17:09:36.333Z,4.30
2018-12-08T17:11:29.007Z,4.90
2018-12-08T17:12:28.877Z,4.90
2018-12-08T17:14:21.555Z,3.90
2018-12-08T17:15:21.432Z,4.50
2018-12-08T17:17:14.094Z,4.40
2018-12-08T17:18:13.978Z,5.10
2018-12-08T17:20:06.661Z,5.00
2018-12-08T17:21:06.535Z,4.30
2018-12-08T17:22:59.210Z,5.10
2018-12-08T17:23:59.097Z,5.00
2018-12-08T17:25:52.269Z,4.50
2018-12-08T17:26:52.140Z,5.30
2018-12-08T17:28:44.812Z,4.60
2018-12-08T17:29:44.700Z,4.60
2018-12-08T17:31:37.874Z,5.00
2018-12-08T17:32:37.746Z,5.10
2018-12-08T17:34:30.412Z,5.30
2018-12-08T17:35:30.301Z,5.40
2018-12-08T17:37:22.983Z,5.60
2018-12-08T17:38:22.853Z,5.60
2018-12-08T17:40:15.548Z,5.20
2018-12-08T17:41:15.409Z,5.00
2018-12-08T17:43:08.088Z,5.00
2018-12-08T17:44:07.971Z,5.50
2018-12-08T17:46:00.655Z,5.20
2018-12-08T17:47:00.524Z,5.10
2018-12-08T17:48:53.211Z,5.20
2018-12-08T17:49:53.091Z,4.70
2018-12-08T17:51:45.763Z,7.70
2018-12-08T17:52:45.641Z,5.20
2018-12-08T17:54:38.302Z,5.80
2018-12-08T17:55:38.187Z,5.20
2018-12-08T17:57:30.869Z,5.30
2018-12-08T17:58:30.746Z,5.80
2018-12-08T18:00:23.434Z,5.10
2018-12-08T18:01:23.297Z,4.90
2018-12-08T18:03:15.961Z,5.90
2018-12-08T18:04:15.855Z,5.10
2018-12-08T18:06:08.531Z,5.20
2018-12-08T18:07:08.402Z,5.40
2018-12-08T18:09:01.066Z,5.70
2018-12-08T18:10:00.951Z,5.90
2018-12-08T18:11:53.634Z,9.70
2018-12-08T18:12:53.506Z,9.30
2018-12-08T18:14:46.173Z,13.80
2018-12-08T18:15:46.065Z,5.60
2018-12-08T18:17:38.746Z,5.70
2018-12-08T18:18:38.613Z,6.00
2018-12-08T18:20:31.281Z,5.80
2018-12-08T18:21:31.231Z,6.70
2018-12-08T18:23:23.855Z,5.70
2018-12-08T18:24:23.725Z,5.50
2018-12-08T18:26:16.388Z,5.50
2018-12-08T18:27:16.280Z,6.00
2018-12-08T18:29:08.961Z,5.90
2018-12-08T18:30:08.833Z,5.80
2018-12-08T18:32:01.513Z,5.40
2018-12-08T18:33:01.383Z,5.80
2018-12-08T18:34:54.048Z,5.30
2018-12-08T18:35:53.932Z,6.00
2018-12-08T18:37:46.611Z,5.30
2018-12-08T18:38:46.488Z,5.70
2018-12-08T18:40:39.151Z,5.90
2018-12-08T18:41:39.043Z,6.10
2018-12-08T18:43:31.719Z,5.80
2018-12-08T18:44:31.594Z,5.20
2018-12-08T18:46:24.255Z,6.30
2018-12-08T18:47:24.152Z,6.20
2018-12-08T18:49:16.830Z,6.00
2018-12-08T18:50:16.706Z,6.20
2018-12-08T18:52:09.557Z,5.90
2018-12-08T18:53:09.353Z,6.40
2018-12-08T18:55:01.927Z,6.60
2018-12-08T18:56:01.815Z,6.90
2018-12-08T18:57:54.497Z,6.60
2018-12-08T18:58:54.372Z,6.90
2018-12-08T19:00:47.054Z,6.50
2018-12-08T19:01:46.938Z,6.70
2018-12-08T19:03:39.738Z,6.60
2018-12-08T19:04:39.493Z,6.80
2018-12-08T19:06:32.250Z,7.10
2018-12-08T19:07:32.079Z,7.30
2018-12-08T19:09:24.725Z,6.60
2018-12-08T19:10:24.593Z,6.30
2018-12-08T19:12:17.268Z,5.70
2018-12-08T19:13:17.145Z,5.80
2018-12-08T19:15:09.829Z,6.10
2018-12-08T19:16:09.695Z,5.50
2018-12-08T19:18:02.371Z,5.80
2018-12-08T19:19:02.249Z,5.10
2018-12-08T19:20:54.912Z,5.80
2018-12-08T19:21:54.838Z,5.60
2018-12-08T19:23:47.487Z,5.30
2018-12-08T19:24:47.358Z,5.20
2018-12-08T19:26:40.032Z,5.50
2018-12-08T19:27:39.923Z,4.60
2018-12-08T19:29:32.599Z,4.60
2018-12-08T19:30:32.476Z,4.40
2018-12-08T19:32:25.136Z,4.70
2018-12-08T19:33:25.021Z,4.40
2018-12-08T19:35:17.727Z,4.00
2018-12-08T19:36:17.604Z,4.10
2018-12-08T19:38:10.266Z,4.10
2018-12-08T19:39:10.151Z,4.30
2018-12-08T19:41:02.833Z,3.60
2018-12-08T19:42:02.710Z,3.80
2018-12-08T19:43:55.385Z,4.10
2018-12-08T19:44:55.267Z,3.50
2018-12-08T19:46:47.929Z,3.80
2018-12-08T19:47:47.815Z,4.10
2018-12-08T19:49:40.499Z,3.80
2018-12-08T19:50:40.370Z,3.60
2018-12-08T19:52:33.078Z,3.40
2018-12-08T19:53:32.933Z,3.60
2018-12-08T19:55:25.606Z,3.30
2018-12-08T19:56:25.478Z,3.30
2018-12-08T19:58:18.139Z,3.40
2018-12-08T19:59:18.029Z,3.40
2018-12-08T20:01:10.714Z,3.30
2018-12-08T20:02:10.577Z,3.30
2018-12-08T20:04:03.239Z,2.90
2018-12-08T20:05:03.132Z,3.20
2018-12-08T20:06:55.808Z,3.40
2018-12-08T20:07:55.685Z,3.20
2018-12-08T20:09:48.344Z,3.50
2018-12-08T20:10:48.232Z,3.40
2018-12-08T20:12:40.919Z,3.10
2018-12-08T20:13:40.790Z,2.70
2018-12-08T20:15:33.456Z,2.80
2018-12-08T20:16:33.342Z,3.20
2018-12-08T20:18:26.020Z,3.10
2018-12-08T20:19:25.897Z,3.30
2018-12-08T20:21:18.579Z,2.50
2018-12-08T20:22:18.448Z,2.50
2018-12-08T20:24:11.115Z,2.70
2018-12-08T20:25:10.998Z,2.70
2018-12-08T20:27:03.684Z,2.50
2018-12-08T20:28:03.552Z,2.20
2018-12-08T20:29:56.704Z,2.70
2018-12-08T20:30:56.617Z,2.60
2018-12-08T20:32:49.277Z,2.40
2018-12-08T20:33:49.144Z,2.20
2018-12-08T20:35:41.817Z,2.10
2018-12-08T20:36:41.701Z,2.40
2018-12-08T20:38:34.378Z,2.40
2018-12-08T20:39:34.260Z,2.30
2018-12-08T20:41:26.917Z,3.30
2018-12-08T20:42:26.802Z,2.30
2018-12-08T20:44:19.484Z,2.00
2018-12-08T20:45:19.359Z,2.10
2018-12-08T20:47:12.018Z,2.10
2018-12-08T20:48:11.907Z,2.00
2018-12-08T20:50:04.588Z,2.20
2018-12-08T20:51:04.455Z,2.00
2018-12-08T20:52:57.135Z,2.30
2018-12-08T20:53:57.013Z,2.00
2018-12-08T20:55:49.672Z,1.80
2018-12-08T20:56:49.563Z,1.80
2018-12-08T20:58:42.244Z,2.00
2018-12-08T20:59:42.113Z,1.90
2018-12-08T21:01:34.780Z,2.20
2018-12-08T21:02:34.695Z,1.80
2018-12-08T21:04:27.356Z,2.40
2018-12-08T21:05:27.224Z,1.90
2018-12-08T21:07:19.896Z,1.60
2018-12-08T21:08:19.788Z,1.70
2018-12-08T21:10:12.462Z,1.70
2018-12-08T21:11:12.332Z,1.70
2018-12-08T21:13:05.018Z,1.70
2018-12-08T21:14:04.905Z,1.90
2018-12-08T21:15:57.549Z,1.90
2018-12-08T21:16:57.433Z,2.10
2018-12-08T21:18:50.124Z,1.40
2018-12-08T21:19:50.014Z,1.40
2018-12-08T21:21:42.675Z,1.70
2018-12-08T21:22:42.605Z,1.60
2018-12-08T21:24:35.241Z,1.60
2018-12-08T21:25:35.116Z,1.60
2018-12-08T21:27:28.032Z,1.50
2018-12-08T21:28:27.670Z,1.70
2018-12-08T21:30:20.354Z,1.40
2018-12-08T21:31:20.600Z,1.60
2018-12-08T21:33:13.169Z,1.50
2018-12-08T21:34:12.972Z,1.50
2018-12-08T21:36:05.787Z,1.40
2018-12-08T21:37:05.534Z,1.30
2018-12-08T21:38:58.351Z,1.30
2018-12-08T21:39:58.208Z,1.20
2018-12-08T21:41:50.877Z,1.30
2018-12-08T21:42:51.038Z,1.50
2018-12-08T21:44:43.466Z,1.60
2018-12-08T21:45:43.617Z,1.50
2018-12-08T21:47:36.446Z,1.00
2018-12-08T21:48:35.965Z,1.50
2018-12-08T21:50:29.412Z,1.20
2018-12-08T21:51:28.468Z,1.30
2018-12-08T21:53:21.380Z,1.00
2018-12-08T21:54:21.591Z,0.90
2018-12-08T21:56:13.695Z,0.70
2018-12-08T21:57:13.571Z,1.10
2018-12-08T21:59:06.572Z,1.30
2018-12-08T22:00:06.171Z,0.90
2018-12-08T22:01:58.920Z,1.00
2018-12-08T22:02:58.808Z,1.10
2018-12-08T22:04:51.732Z,1.00
2018-12-08T22:05:51.358Z,1.10
2018-12-08T22:07:44.102Z,1.10
2018-12-08T22:08:43.976Z,0.90
2018-12-08T22:10:36.659Z,1.40
2018-12-08T22:11:36.585Z,1.10
2018-12-08T22:13:29.201Z,1.20
2018-12-08T22:14:29.086Z,1.10
2018-12-08T22:16:22.830Z,1.10
2018-12-08T22:17:22.701Z,1.40
2018-12-08T22:19:15.367Z,1.30
2018-12-08T22:20:15.244Z,1.60
2018-12-08T22:22:07.910Z,1.50
2018-12-08T22:23:08.127Z,1.60
2018-12-08T22:25:00.981Z,1.30
2018-12-08T22:26:00.859Z,1.50
2018-12-08T22:27:53.523Z,1.90
2018-12-08T22:28:53.409Z,2.10
2018-12-08T22:30:46.095Z,2.00
2018-12-08T22:31:46.012Z,1.70
2018-12-08T22:33:39.121Z,1.90
2018-12-08T22:34:38.581Z,2.00
2018-12-08T22:36:31.254Z,3.70
2018-12-08T22:37:31.637Z,4.10
2018-12-08T22:39:23.792Z,2.60
2018-12-08T22:40:23.684Z,3.20
2018-12-08T22:42:16.537Z,2.30
2018-12-08T22:43:16.261Z,3.00
2018-12-08T22:45:09.016Z,2.70
2018-12-08T22:46:08.887Z,2.80
2018-12-08T22:48:01.553Z,2.60
2018-12-08T22:49:01.446Z,2.90
2018-12-08T22:50:54.130Z,3.10
2018-12-08T22:51:53.997Z,3.30
2018-12-08T22:53:46.665Z,3.90
2018-12-08T22:54:46.555Z,4.30
2018-12-08T22:56:39.235Z,4.10
2018-12-08T22:57:39.547Z,5.30
2018-12-08T22:59:31.966Z,4.10
